Sauce Viejo, Argentina
Current Conditions -  °F | °C
As of 12:00 PM on Thursday 30 Oct 2014 (Local Time) from SAAR Reporting Station
Broken Clouds Broken Clouds  
Wind Chill: 72°   Ceiling: 10000
Heat Index: 72°   Visibility: 6mi
Dew Point: 57°   Wind: 9mph
Humidity: 60%   Direction: 70°ENE
Pressure: 29.85"   Gusts: NA
Location:  31.77°S, 60.83°W
Report Text: SAAR 301500Z 07008KT 9999 FEW025 BKN10022/14 Q1011
Loading
Personal Weather Stations






























Interactive Weather Map
Tropical Storm Tracking
New forecast layout! Learn more

10-Day Weather Forecast

Advertisements
Track Severe Weather on mobile